sensor_id;sensor_type;location;lat;lon;timestamp;pressure;altitude;pressure_sealevel;temperature;humidity
43153;BME280;28756;49.064;9.290;2023-06-05T00:01:03;99116.44;;;13.81;92.88
43153;BME280;28756;49.064;9.290;2023-06-05T00:03:29;99118.22;;;13.81;94.51
43153;BME280;28756;49.064;9.290;2023-06-05T00:05:55;99117.38;;;13.80;95.01
43153;BME280;28756;49.064;9.290;2023-06-05T00:08:21;99119.34;;;13.77;94.54
43153;BME280;28756;49.064;9.290;2023-06-05T00:10:47;99114.03;;;13.91;94.00
43153;BME280;28756;49.064;9.290;2023-06-05T00:13:13;99114.63;;;13.82;93.54
43153;BME280;28756;49.064;9.290;2023-06-05T00:15:39;99116.00;;;13.74;95.59
43153;BME280;28756;49.064;9.290;2023-06-05T00:18:05;99118.72;;;13.73;94.69
43153;BME280;28756;49.064;9.290;2023-06-05T00:20:31;99119.47;;;13.75;95.99
43153;BME280;28756;49.064;9.290;2023-06-05T00:22:56;99123.63;;;13.78;96.26
43153;BME280;28756;49.064;9.290;2023-06-05T00:25:22;99122.06;;;13.75;96.64
43153;BME280;28756;49.064;9.290;2023-06-05T00:27:48;99120.69;;;13.69;100.00
43153;BME280;28756;49.064;9.290;2023-06-05T00:30:13;99117.03;;;13.59;100.00
43153;BME280;28756;49.064;9.290;2023-06-05T00:32:39;99117.13;;;13.57;99.21
43153;BME280;28756;49.064;9.290;2023-06-05T00:35:06;99120.25;;;13.50;99.49
43153;BME280;28756;49.064;9.290;2023-06-05T00:37:33;99120.47;;;13.47;100.00
43153;BME280;28756;49.064;9.290;2023-06-05T00:40:04;99119.09;;;13.41;100.00
43153;BME280;28756;49.064;9.290;2023-06-05T00:42:31;99121.22;;;13.34;100.00
43153;BME280;28756;49.064;9.290;2023-06-05T00:44:56;99117.44;;;13.25;100.00
43153;BME280;28756;49.064;9.290;2023-06-05T00:47:22;99118.97;;;13.15;100.00
43153;BME280;28756;49.064;9.290;2023-06-05T00:49:49;99114.44;;;13.04;100.00
43153;BME280;28756;49.064;9.290;2023-06-05T00:52:15;99120.88;;;12.99;100.00
43153;BME280;28756;49.064;9.290;2023-06-05T00:54:42;99122.97;;;12.93;100.00
43153;BME280;28756;49.064;9.290;2023-06-05T00:57:08;99127.00;;;12.85;100.00
43153;BME280;28756;49.064;9.290;2023-06-05T00:59:36;99125.81;;;12.76;100.00
43153;BME280;28756;49.064;9.290;2023-06-05T01:02:02;99124.34;;;12.72;100.00
43153;BME280;28756;49.064;9.290;2023-06-05T01:04:29;99123.81;;;12.67;100.00
43153;BME280;28756;49.064;9.290;2023-06-05T01:06:55;99124.38;;;12.57;100.00
43153;BME280;28756;49.064;9.290;2023-06-05T01:09:24;99122.31;;;12.62;100.00
43153;BME280;28756;49.064;9.290;2023-06-05T01:12:20;99133.28;;;12.53;100.00
43153;BME280;28756;49.064;9.290;2023-06-05T01:14:49;99136.47;;;12.58;100.00
43153;BME280;28756;49.064;9.290;2023-06-05T01:17:16;99130.88;;;12.64;100.00
43153;BME280;28756;49.064;9.290;2023-06-05T01:19:45;99132.09;;;12.59;100.00
43153;BME280;28756;49.064;9.290;2023-06-05T01:22:11;99130.41;;;12.58;100.00
43153;BME280;28756;49.064;9.290;2023-06-05T01:24:38;99129.59;;;12.57;100.00
43153;BME280;28756;49.064;9.290;2023-06-05T01:27:55;99131.34;;;12.57;100.00
43153;BME280;28756;49.064;9.290;2023-06-05T01:31:00;99125.19;;;12.58;100.00
43153;BME280;28756;49.064;9.290;2023-06-05T01:33:53;99124.53;;;12.54;100.00
43153;BME280;28756;49.064;9.290;2023-06-05T01:36:22;99124.06;;;12.47;100.00
43153;BME280;28756;49.064;9.290;2023-06-05T01:38:49;99124.28;;;12.44;100.00
43153;BME280;28756;49.064;9.290;2023-06-05T01:41:17;99128.84;;;12.41;100.00
43153;BME280;28756;49.064;9.290;2023-06-05T01:43:45;99128.38;;;12.34;100.00
43153;BME280;28756;49.064;9.290;2023-06-05T01:46:12;99125.28;;;12.27;100.00
43153;BME280;28756;49.064;9.290;2023-06-05T01:48:39;99124.75;;;12.22;100.00
43153;BME280;28756;49.064;9.290;2023-06-05T01:51:05;99125.88;;;12.18;100.00
43153;BME280;28756;49.064;9.290;2023-06-05T01:53:31;99129.69;;;12.12;100.00
43153;BME280;28756;49.064;9.290;2023-06-05T01:55:57;99124.75;;;12.08;100.00
43153;BME280;28756;49.064;9.290;2023-06-05T01:58:24;99119.00;;;12.03;100.00
43153;BME280;28756;49.064;9.290;2023-06-05T02:00:50;99120.09;;;11.98;100.00
43153;BME280;28756;49.064;9.290;2023-06-05T02:03:18;99121.25;;;11.93;100.00
43153;BME280;28756;49.064;9.290;2023-06-05T02:05:44;99118.19;;;11.86;100.00
43153;BME280;28756;49.064;9.290;2023-06-05T02:08:10;99128.69;;;11.84;100.00
43153;BME280;28756;49.064;9.290;2023-06-05T02:10:36;99118.72;;;11.77;100.00
43153;BME280;28756;49.064;9.290;2023-06-05T02:13:10;99120.47;;;11.62;100.00
43153;BME280;28756;49.064;9.290;2023-06-05T02:15:36;99113.88;;;11.56;100.00
43153;BME280;28756;49.064;9.290;2023-06-05T02:18:03;99117.72;;;11.49;100.00
43153;BME280;28756;49.064;9.290;2023-06-05T02:20:31;99123.66;;;11.36;100.00
43153;BME280;28756;49.064;9.290;2023-06-05T02:22:57;99122.31;;;11.29;100.00
43153;BME280;28756;49.064;9.290;2023-06-05T02:25:24;99137.38;;;11.24;100.00
43153;BME280;28756;49.064;9.290;2023-06-05T02:27:52;99128.16;;;11.18;100.00
43153;BME280;28756;49.064;9.290;2023-06-05T02:30:19;99131.75;;;11.16;100.00
43153;BME280;28756;49.064;9.290;2023-06-05T02:32:46;99132.03;;;11.11;100.00
43153;BME280;28756;49.064;9.290;2023-06-05T02:35:13;99128.81;;;11.06;100.00
43153;BME280;28756;49.064;9.290;2023-06-05T02:37:40;99125.63;;;11.01;100.00
43153;BME280;28756;49.064;9.290;2023-06-05T02:40:13;99127.75;;;10.94;100.00
43153;BME280;28756;49.064;9.290;2023-06-05T02:42:40;99125.38;;;10.89;100.00
43153;BME280;28756;49.064;9.290;2023-06-05T02:45:08;99124.41;;;10.92;100.00
43153;BME280;28756;49.064;9.290;2023-06-05T02:47:34;99125.13;;;10.94;100.00
43153;BME280;28756;49.064;9.290;2023-06-05T02:50:01;99122.53;;;10.94;100.00
43153;BME280;28756;49.064;9.290;2023-06-05T02:52:27;99131.25;;;10.93;100.00
43153;BME280;28756;49.064;9.290;2023-06-05T02:54:53;99127.94;;;10.91;100.00
43153;BME280;28756;49.064;9.290;2023-06-05T02:57:19;99129.84;;;10.87;100.00
43153;BME280;28756;49.064;9.290;2023-06-05T02:59:45;99132.72;;;10.83;100.00
43153;BME280;28756;49.064;9.290;2023-06-05T03:02:11;99132.09;;;10.78;100.00
43153;BME280;28756;49.064;9.290;2023-06-05T03:04:37;99133.44;;;10.69;100.00
43153;BME280;28756;49.064;9.290;2023-06-05T03:07:06;99129.66;;;10.58;100.00
43153;BME280;28756;49.064;9.290;2023-06-05T03:09:33;99139.47;;;10.53;100.00
43153;BME280;28756;49.064;9.290;2023-06-05T03:11:59;99133.75;;;10.47;100.00
43153;BME280;28756;49.064;9.290;2023-06-05T03:14:25;99134.00;;;10.42;100.00
43153;BME280;28756;49.064;9.290;2023-06-05T03:16:54;99136.03;;;10.37;100.00
43153;BME280;28756;49.064;9.290;2023-06-05T03:19:22;99144.25;;;10.27;100.00
43153;BME280;28756;49.064;9.290;2023-06-05T03:21:48;99135.06;;;10.22;100.00
43153;BME280;28756;49.064;9.290;2023-06-05T03:24:15;99123.81;;;10.21;100.00
43153;BME280;28756;49.064;9.290;2023-06-05T03:26:42;99133.50;;;10.18;100.00
43153;BME280;28756;49.064;9.290;2023-06-05T03:29:10;99132.97;;;10.11;100.00
43153;BME280;28756;49.064;9.290;2023-06-05T03:31:36;99132.31;;;10.07;100.00
43153;BME280;28756;49.064;9.290;2023-06-05T03:34:03;99155.00;;;10.04;100.00
43153;BME280;28756;49.064;9.290;2023-06-05T03:36:30;99145.94;;;9.95;100.00
43153;BME280;28756;49.064;9.290;2023-06-05T03:38:58;99147.16;;;9.88;100.00
43153;BME280;28756;49.064;9.290;2023-06-05T03:41:24;99141.81;;;9.91;100.00
43153;BME280;28756;49.064;9.290;2023-06-05T03:43:51;99144.50;;;9.89;100.00
43153;BME280;28756;49.064;9.290;2023-06-05T03:46:17;99141.88;;;9.89;100.00
43153;BME280;28756;49.064;9.290;2023-06-05T03:48:45;99147.94;;;9.90;100.00
43153;BME280;28756;49.064;9.290;2023-06-05T03:51:11;99151.50;;;9.87;100.00
43153;BME280;28756;49.064;9.290;2023-06-05T03:53:38;99149.59;;;9.91;100.00
43153;BME280;28756;49.064;9.290;2023-06-05T03:56:06;99157.38;;;9.91;100.00
43153;BME280;28756;49.064;9.290;2023-06-05T03:58:32;99158.25;;;9.91;100.00
43153;BME280;28756;49.064;9.290;2023-06-05T04:00:58;99160.94;;;9.90;100.00
43153;BME280;28756;49.064;9.290;2023-06-05T04:03:23;99160.94;;;9.90;100.00
43153;BME280;28756;49.064;9.290;2023-06-05T04:05:50;99159.06;;;9.92;100.00
43153;BME280;28756;49.064;9.290;2023-06-05T04:08:16;99166.94;;;10.08;100.00
43153;BME280;28756;49.064;9.290;2023-06-05T04:10:42;99157.44;;;10.24;100.00
43153;BME280;28756;49.064;9.290;2023-06-05T04:13:08;99170.50;;;10.40;100.00
43153;BME280;28756;49.064;9.290;2023-06-05T04:15:33;99166.41;;;10.52;100.00
43153;BME280;28756;49.064;9.290;2023-06-05T04:18:00;99170.19;;;10.63;100.00
43153;BME280;28756;49.064;9.290;2023-06-05T04:20:26;99161.66;;;10.77;100.00
43153;BME280;28756;49.064;9.290;2023-06-05T04:22:52;99167.34;;;10.83;100.00
43153;BME280;28756;49.064;9.290;2023-06-05T04:25:18;99167.09;;;10.88;100.00
43153;BME280;28756;49.064;9.290;2023-06-05T04:27:45;99166.94;;;10.91;100.00
43153;BME280;28756;49.064;9.290;2023-06-05T04:30:12;99167.53;;;10.96;100.00
43153;BME280;28756;49.064;9.290;2023-06-05T04:32:39;99164.84;;;10.98;100.00
43153;BME280;28756;49.064;9.290;2023-06-05T04:35:07;99161.16;;;11.02;100.00
43153;BME280;28756;49.064;9.290;2023-06-05T04:37:35;99161.66;;;11.09;100.00
43153;BME280;28756;49.064;9.290;2023-06-05T04:40:03;99158.78;;;11.13;100.00
43153;BME280;28756;49.064;9.290;2023-06-05T04:42:35;99161.72;;;11.23;100.00
43153;BME280;28756;49.064;9.290;2023-06-05T04:45:04;99163.22;;;11.27;100.00
43153;BME280;28756;49.064;9.290;2023-06-05T04:47:31;99163.72;;;11.34;100.00
43153;BME280;28756;49.064;9.290;2023-06-05T04:50:03;99162.44;;;11.41;100.00
43153;BME280;28756;49.064;9.290;2023-06-05T04:52:31;99163.59;;;11.51;100.00
43153;BME280;28756;49.064;9.290;2023-06-05T04:54:59;99165.75;;;11.59;100.00
43153;BME280;28756;49.064;9.290;2023-06-05T04:57:28;99165.41;;;11.65;100.00
43153;BME280;28756;49.064;9.290;2023-06-05T04:59:54;99159.22;;;11.82;100.00
43153;BME280;28756;49.064;9.290;2023-06-05T05:02:20;99158.66;;;11.92;100.00
43153;BME280;28756;49.064;9.290;2023-06-05T05:04:47;99156.31;;;12.03;100.00
43153;BME280;28756;49.064;9.290;2023-06-05T05:07:12;99151.19;;;12.16;100.00
43153;BME280;28756;49.064;9.290;2023-06-05T05:09:45;99151.47;;;12.26;100.00
43153;BME280;28756;49.064;9.290;2023-06-05T05:12:11;99149.25;;;12.34;100.00
43153;BME280;28756;49.064;9.290;2023-06-05T05:14:37;99160.41;;;12.51;100.00
43153;BME280;28756;49.064;9.290;2023-06-05T05:17:05;99144.06;;;12.76;100.00
43153;BME280;28756;49.064;9.290;2023-06-05T05:19:31;99155.78;;;12.98;100.00
43153;BME280;28756;49.064;9.290;2023-06-05T05:21:57;99155.44;;;13.17;100.00
43153;BME280;28756;49.064;9.290;2023-06-05T05:24:23;99155.38;;;13.31;100.00
43153;BME280;28756;49.064;9.290;2023-06-05T05:26:51;99160.50;;;13.60;100.00
43153;BME280;28756;49.064;9.290;2023-06-05T05:29:17;99155.84;;;13.91;100.00
43153;BME280;28756;49.064;9.290;2023-06-05T05:31:44;99155.75;;;13.93;100.00
43153;BME280;28756;49.064;9.290;2023-06-05T05:34:10;99158.16;;;14.09;100.00
43153;BME280;28756;49.064;9.290;2023-06-05T05:36:35;99152.06;;;14.47;100.00
43153;BME280;28756;49.064;9.290;2023-06-05T05:39:04;99159.47;;;14.79;100.00
43153;BME280;28756;49.064;9.290;2023-06-05T05:41:30;99154.19;;;14.92;100.00
43153;BME280;28756;49.064;9.290;2023-06-05T05:43:56;99156.72;;;15.18;100.00
43153;BME280;28756;49.064;9.290;2023-06-05T05:46:22;99162.88;;;15.41;97.67
43153;BME280;28756;49.064;9.290;2023-06-05T05:48:47;99152.22;;;15.55;93.15
43153;BME280;28756;49.064;9.290;2023-06-05T05:51:13;99150.06;;;15.85;93.96
43153;BME280;28756;49.064;9.290;2023-06-05T05:53:39;99153.91;;;15.92;89.21
43153;BME280;28756;49.064;9.290;2023-06-05T05:56:04;99150.19;;;15.83;88.66
43153;BME280;28756;49.064;9.290;2023-06-05T05:58:31;99151.03;;;15.84;89.68
43153;BME280;28756;49.064;9.290;2023-06-05T06:00:57;99153.94;;;16.03;81.80
43153;BME280;28756;49.064;9.290;2023-06-05T06:03:25;99155.47;;;16.06;84.09
43153;BME280;28756;49.064;9.290;2023-06-05T06:05:52;99155.63;;;16.61;78.89
43153;BME280;28756;49.064;9.290;2023-06-05T06:08:18;99142.47;;;16.95;78.74
43153;BME280;28756;49.064;9.290;2023-06-05T06:10:44;99153.34;;;16.79;78.78
43153;BME280;28756;49.064;9.290;2023-06-05T06:13:11;99144.56;;;17.66;73.48
43153;BME280;28756;49.064;9.290;2023-06-05T06:15:37;99147.06;;;17.47;70.22
43153;BME280;28756;49.064;9.290;2023-06-05T06:18:05;99141.81;;;17.68;72.01
43153;BME280;28756;49.064;9.290;2023-06-05T06:20:32;99131.50;;;18.28;68.54
43153;BME280;28756;49.064;9.290;2023-06-05T06:22:59;99147.31;;;18.28;64.01
43153;BME280;28756;49.064;9.290;2023-06-05T06:25:25;99138.94;;;17.92;67.37
43153;BME280;28756;49.064;9.290;2023-06-05T06:27:55;99150.59;;;17.57;73.56
43153;BME280;28756;49.064;9.290;2023-06-05T06:30:21;99131.75;;;18.46;67.54
43153;BME280;28756;49.064;9.290;2023-06-05T06:32:47;99143.06;;;18.88;65.89
43153;BME280;28756;49.064;9.290;2023-06-05T06:35:13;99147.34;;;18.79;66.67
43153;BME280;28756;49.064;9.290;2023-06-05T06:37:40;99136.97;;;18.87;66.67
43153;BME280;28756;49.064;9.290;2023-06-05T06:40:07;99143.66;;;18.20;71.51
43153;BME280;28756;49.064;9.290;2023-06-05T06:42:37;99140.25;;;18.70;67.90
43153;BME280;28756;49.064;9.290;2023-06-05T06:45:03;99139.94;;;19.04;70.82
43153;BME280;28756;49.064;9.290;2023-06-05T06:47:30;99144.59;;;18.90;67.90
43153;BME280;28756;49.064;9.290;2023-06-05T06:49:56;99156.16;;;19.19;64.70
43153;BME280;28756;49.064;9.290;2023-06-05T06:52:25;99163.38;;;18.25;72.22
43153;BME280;28756;49.064;9.290;2023-06-05T06:54:50;99151.19;;;18.03;74.73
43153;BME280;28756;49.064;9.290;2023-06-05T06:57:16;99152.38;;;18.20;73.45
43153;BME280;28756;49.064;9.290;2023-06-05T06:59:43;99141.72;;;18.93;69.19
43153;BME280;28756;49.064;9.290;2023-06-05T07:02:13;99132.84;;;19.93;66.23
43153;BME280;28756;49.064;9.290;2023-06-05T07:04:40;99127.91;;;20.45;61.24
43153;BME280;28756;49.064;9.290;2023-06-05T07:07:15;99126.66;;;20.77;62.75
43153;BME280;28756;49.064;9.290;2023-06-05T07:09:42;99133.91;;;20.10;61.12
43153;BME280;28756;49.064;9.290;2023-06-05T07:12:09;99130.56;;;20.08;67.04
43153;BME280;28756;49.064;9.290;2023-06-05T07:14:35;99133.19;;;20.08;60.31
43153;BME280;28756;49.064;9.290;2023-06-05T07:17:01;99127.47;;;21.24;59.91
43153;BME280;28756;49.064;9.290;2023-06-05T07:21:59;99131.53;;;21.54;57.18
43153;BME280;28756;49.064;9.290;2023-06-05T07:24:26;99129.00;;;20.80;56.60
43153;BME280;28756;49.064;9.290;2023-06-05T07:26:54;99133.72;;;20.87;60.10
43153;BME280;28756;49.064;9.290;2023-06-05T07:29:22;99130.53;;;20.83;61.35
43153;BME280;28756;49.064;9.290;2023-06-05T07:31:50;99126.97;;;21.46;58.25
43153;BME280;28756;49.064;9.290;2023-06-05T07:34:18;99124.84;;;21.68;59.57
43153;BME280;28756;49.064;9.290;2023-06-05T07:36:46;99125.19;;;21.29;59.49
43153;BME280;28756;49.064;9.290;2023-06-05T07:39:13;99124.41;;;21.55;60.07
43153;BME280;28756;49.064;9.290;2023-06-05T07:41:40;99130.47;;;21.65;56.92
43153;BME280;28756;49.064;9.290;2023-06-05T07:44:13;99130.19;;;21.32;58.90
43153;BME280;28756;49.064;9.290;2023-06-05T07:46:47;99127.47;;;21.06;58.85
43153;BME280;28756;49.064;9.290;2023-06-05T07:49:13;99132.56;;;21.80;59.87
43153;BME280;28756;49.064;9.290;2023-06-05T07:51:39;99123.56;;;21.99;54.31
43153;BME280;28756;49.064;9.290;2023-06-05T07:54:07;99127.22;;;21.98;56.45
43153;BME280;28756;49.064;9.290;2023-06-05T07:56:34;99129.06;;;21.79;56.85
43153;BME280;28756;49.064;9.290;2023-06-05T07:59:00;99120.13;;;22.06;57.49
43153;BME280;28756;49.064;9.290;2023-06-05T08:01:31;99113.38;;;22.12;55.59
43153;BME280;28756;49.064;9.290;2023-06-05T08:03:57;99117.44;;;22.24;57.67
43153;BME280;28756;49.064;9.290;2023-06-05T08:06:24;99121.69;;;21.65;57.31
43153;BME280;28756;49.064;9.290;2023-06-05T08:08:53;99110.41;;;22.42;55.36
43153;BME280;28756;49.064;9.290;2023-06-05T08:11:18;99109.19;;;22.87;55.78
43153;BME280;28756;49.064;9.290;2023-06-05T08:13:44;99099.97;;;23.08;54.73
43153;BME280;28756;49.064;9.290;2023-06-05T08:16:10;99096.19;;;23.35;53.73
43153;BME280;28756;49.064;9.290;2023-06-05T08:18:36;99091.03;;;22.49;55.09
43153;BME280;28756;49.064;9.290;2023-06-05T08:21:02;99103.03;;;22.62;53.15
43153;BME280;28756;49.064;9.290;2023-06-05T08:23:28;99095.25;;;22.34;55.13
43153;BME280;28756;49.064;9.290;2023-06-05T08:25:54;99103.25;;;22.77;55.83
43153;BME280;28756;49.064;9.290;2023-06-05T08:28:20;99090.91;;;23.35;55.04
43153;BME280;28756;49.064;9.290;2023-06-05T08:30:46;99090.53;;;23.46;55.85
43153;BME280;28756;49.064;9.290;2023-06-05T08:33:11;99093.91;;;24.13;55.28
43153;BME280;28756;49.064;9.290;2023-06-05T08:35:40;99083.59;;;24.58;50.96
43153;BME280;28756;49.064;9.290;2023-06-05T08:38:06;99083.66;;;24.81;50.46
43153;BME280;28756;49.064;9.290;2023-06-05T08:40:33;99082.59;;;24.90;51.58
43153;BME280;28756;49.064;9.290;2023-06-05T08:43:00;99082.28;;;25.32;49.03
43153;BME280;28756;49.064;9.290;2023-06-05T08:45:27;99078.78;;;25.54;49.63
43153;BME280;28756;49.064;9.290;2023-06-05T08:47:54;99087.19;;;24.65;49.12
43153;BME280;28756;49.064;9.290;2023-06-05T08:50:24;99087.91;;;25.37;47.32
43153;BME280;28756;49.064;9.290;2023-06-05T08:52:51;99084.41;;;24.27;50.30
43153;BME280;28756;49.064;9.290;2023-06-05T08:55:18;99085.53;;;24.41;51.96
43153;BME280;28756;49.064;9.290;2023-06-05T08:57:44;99088.31;;;24.00;49.51
43153;BME280;28756;49.064;9.290;2023-06-05T09:00:11;99081.94;;;24.57;49.72
43153;BME280;28756;49.064;9.290;2023-06-05T09:02:40;99078.63;;;25.33;48.31
43153;BME280;28756;49.064;9.290;2023-06-05T09:05:09;99075.50;;;25.67;45.84
43153;BME280;28756;49.064;9.290;2023-06-05T09:07:35;99075.50;;;24.83;47.37
43153;BME280;28756;49.064;9.290;2023-06-05T09:10:04;99077.09;;;25.38;47.81
43153;BME280;28756;49.064;9.290;2023-06-05T09:12:29;99079.81;;;25.30;48.30
43153;BME280;28756;49.064;9.290;2023-06-05T09:14:55;99072.69;;;25.07;47.06
43153;BME280;28756;49.064;9.290;2023-06-05T09:17:21;99074.03;;;24.40;49.43
43153;BME280;28756;49.064;9.290;2023-06-05T09:19:48;99072.31;;;24.24;48.56
43153;BME280;28756;49.064;9.290;2023-06-05T09:22:16;99061.31;;;25.14;46.66
43153;BME280;28756;49.064;9.290;2023-06-05T09:24:57;99067.75;;;25.19;46.22
43153;BME280;28756;49.064;9.290;2023-06-05T09:27:23;99067.91;;;25.18;46.19
43153;BME280;28756;49.064;9.290;2023-06-05T09:30:04;99052.19;;;25.84;49.46
43153;BME280;28756;49.064;9.290;2023-06-05T09:32:30;99052.38;;;26.49;46.73
43153;BME280;28756;49.064;9.290;2023-06-05T09:34:56;99060.59;;;26.48;44.10
43153;BME280;28756;49.064;9.290;2023-06-05T09:37:34;99048.03;;;27.50;44.77
43153;BME280;28756;49.064;9.290;2023-06-05T09:40:04;99053.34;;;26.42;45.35
43153;BME280;28756;49.064;9.290;2023-06-05T09:42:32;99065.25;;;25.18;43.08
43153;BME280;28756;49.064;9.290;2023-06-05T09:45:02;99057.69;;;25.68;42.37
43153;BME280;28756;49.064;9.290;2023-06-05T09:47:28;99052.75;;;25.80;42.35
43153;BME280;28756;49.064;9.290;2023-06-05T09:49:53;99049.56;;;24.85;42.83
43153;BME280;28756;49.064;9.290;2023-06-05T09:52:20;99046.91;;;25.46;42.43
43153;BME280;28756;49.064;9.290;2023-06-05T09:54:46;99060.53;;;25.51;43.16
43153;BME280;28756;49.064;9.290;2023-06-05T09:57:14;99056.78;;;25.91;41.84
43153;BME280;28756;49.064;9.290;2023-06-05T09:59:52;99047.13;;;25.90;42.41
43153;BME280;28756;49.064;9.290;2023-06-05T10:02:35;99043.09;;;26.24;41.36
43153;BME280;28756;49.064;9.290;2023-06-05T10:05:02;99035.72;;;26.26;39.72
43153;BME280;28756;49.064;9.290;2023-06-05T10:07:33;99036.94;;;27.03;39.25
43153;BME280;28756;49.064;9.290;2023-06-05T10:10:01;99042.44;;;25.47;40.75
43153;BME280;28756;49.064;9.290;2023-06-05T10:12:30;99036.13;;;26.08;40.88
43153;BME280;28756;49.064;9.290;2023-06-05T10:14:57;99017.88;;;27.06;38.74
43153;BME280;28756;49.064;9.290;2023-06-05T10:17:23;99029.41;;;26.48;39.85
43153;BME280;28756;49.064;9.290;2023-06-05T10:19:51;99028.34;;;26.64;39.54
43153;BME280;28756;49.064;9.290;2023-06-05T10:22:20;99031.88;;;25.83;40.02
43153;BME280;28756;49.064;9.290;2023-06-05T10:24:51;99027.72;;;25.81;38.15
43153;BME280;28756;49.064;9.290;2023-06-05T10:28:05;99023.91;;;26.50;39.07
43153;BME280;28756;49.064;9.290;2023-06-05T10:33:48;99024.47;;;27.32;39.51
43153;BME280;28756;49.064;9.290;2023-06-05T10:36:39;99018.94;;;26.69;38.75
43153;BME280;28756;49.064;9.290;2023-06-05T10:39:11;99018.75;;;25.97;40.57
43153;BME280;28756;49.064;9.290;2023-06-05T10:41:38;99022.69;;;26.31;38.57
43153;BME280;28756;49.064;9.290;2023-06-05T10:44:04;99027.06;;;26.60;39.50
43153;BME280;28756;49.064;9.290;2023-06-05T10:46:35;99030.41;;;25.81;38.63
43153;BME280;28756;49.064;9.290;2023-06-05T10:49:17;99037.84;;;25.85;39.26
43153;BME280;28756;49.064;9.290;2023-06-05T10:51:52;99017.72;;;26.28;40.26
43153;BME280;28756;49.064;9.290;2023-06-05T10:56:56;99010.22;;;27.88;38.20
43153;BME280;28756;49.064;9.290;2023-06-05T10:59:36;99015.22;;;28.53;36.18
43153;BME280;28756;49.064;9.290;2023-06-05T11:07:24;99009.41;;;27.88;38.69
43153;BME280;28756;49.064;9.290;2023-06-05T11:17:56;99004.09;;;27.95;38.61
43153;BME280;28756;49.064;9.290;2023-06-05T11:27:51;99010.47;;;25.09;37.52
43153;BME280;28756;49.064;9.290;2023-06-05T11:30:20;99010.94;;;24.74;38.85
43153;BME280;28756;49.064;9.290;2023-06-05T11:32:47;99010.53;;;23.83;38.86
43153;BME280;28756;49.064;9.290;2023-06-05T11:35:13;98995.00;;;25.27;40.66
43153;BME280;28756;49.064;9.290;2023-06-05T11:37:39;98999.28;;;25.66;38.61
43153;BME280;28756;49.064;9.290;2023-06-05T11:40:06;98980.63;;;25.81;38.83
43153;BME280;28756;49.064;9.290;2023-06-05T11:42:37;98979.78;;;26.69;37.73
43153;BME280;28756;49.064;9.290;2023-06-05T11:45:13;98975.91;;;25.98;40.75
43153;BME280;28756;49.064;9.290;2023-06-05T11:47:40;98983.91;;;26.72;38.65
43153;BME280;28756;49.064;9.290;2023-06-05T11:50:11;98972.72;;;26.61;35.47
43153;BME280;28756;49.064;9.290;2023-06-05T11:52:38;98968.81;;;26.36;40.36
43153;BME280;28756;49.064;9.290;2023-06-05T11:55:18;98973.81;;;26.24;37.05
43153;BME280;28756;49.064;9.290;2023-06-05T11:57:54;98969.94;;;27.20;39.62
43153;BME280;28756;49.064;9.290;2023-06-05T12:00:26;98969.56;;;26.73;40.14
43153;BME280;28756;49.064;9.290;2023-06-05T12:02:52;98979.38;;;26.72;37.38
43153;BME280;28756;49.064;9.290;2023-06-05T12:05:18;98980.16;;;26.08;35.56
43153;BME280;28756;49.064;9.290;2023-06-05T12:07:44;98980.03;;;26.31;36.52
43153;BME280;28756;49.064;9.290;2023-06-05T12:10:10;98967.63;;;26.45;34.21
43153;BME280;28756;49.064;9.290;2023-06-05T12:12:50;98967.41;;;26.40;36.72
43153;BME280;28756;49.064;9.290;2023-06-05T12:15:18;98964.44;;;26.71;35.33
43153;BME280;28756;49.064;9.290;2023-06-05T12:17:52;98958.31;;;26.99;39.88
43153;BME280;28756;49.064;9.290;2023-06-05T12:20:19;98963.50;;;26.06;37.42
43153;BME280;28756;49.064;9.290;2023-06-05T12:22:45;98966.16;;;26.21;36.80
43153;BME280;28756;49.064;9.290;2023-06-05T12:25:22;98959.28;;;26.26;36.14
43153;BME280;28756;49.064;9.290;2023-06-05T12:27:49;98958.28;;;26.12;37.96
43153;BME280;28756;49.064;9.290;2023-06-05T12:30:15;98957.59;;;25.74;38.90
43153;BME280;28756;49.064;9.290;2023-06-05T12:32:43;98953.69;;;26.06;36.38
43153;BME280;28756;49.064;9.290;2023-06-05T12:35:22;98946.56;;;26.28;36.93
43153;BME280;28756;49.064;9.290;2023-06-05T12:37:51;98940.94;;;26.82;39.49
43153;BME280;28756;49.064;9.290;2023-06-05T12:40:20;98940.59;;;25.90;38.56
43153;BME280;28756;49.064;9.290;2023-06-05T12:42:48;98947.63;;;25.61;36.49
43153;BME280;28756;49.064;9.290;2023-06-05T12:45:14;98952.34;;;25.95;34.88
43153;BME280;28756;49.064;9.290;2023-06-05T12:47:41;98944.66;;;26.22;34.27
43153;BME280;28756;49.064;9.290;2023-06-05T12:50:09;98947.09;;;26.39;34.13
43153;BME280;28756;49.064;9.290;2023-06-05T12:52:41;98946.16;;;25.95;34.74
43153;BME280;28756;49.064;9.290;2023-06-05T12:55:08;98951.63;;;25.72;34.49
43153;BME280;28756;49.064;9.290;2023-06-05T12:57:34;98938.41;;;26.30;33.72
43153;BME280;28756;49.064;9.290;2023-06-05T13:00:03;98933.81;;;26.45;34.64
43153;BME280;28756;49.064;9.290;2023-06-05T13:02:42;98932.66;;;26.33;34.76
43153;BME280;28756;49.064;9.290;2023-06-05T13:05:13;98930.44;;;26.15;33.12
43153;BME280;28756;49.064;9.290;2023-06-05T13:07:39;98929.22;;;26.17;34.87
43153;BME280;28756;49.064;9.290;2023-06-05T13:10:06;98929.06;;;26.41;33.39
43153;BME280;28756;49.064;9.290;2023-06-05T13:12:32;98932.28;;;26.36;33.81
43153;BME280;28756;49.064;9.290;2023-06-05T13:14:58;98929.31;;;26.46;35.04
43153;BME280;28756;49.064;9.290;2023-06-05T13:17:25;98931.19;;;26.09;34.58
43153;BME280;28756;49.064;9.290;2023-06-05T13:19:51;98925.56;;;26.19;35.12
43153;BME280;28756;49.064;9.290;2023-06-05T13:22:17;98930.44;;;25.48;35.43
43153;BME280;28756;49.064;9.290;2023-06-05T13:24:42;98926.13;;;25.62;35.65
43153;BME280;28756;49.064;9.290;2023-06-05T13:27:08;98927.25;;;25.90;34.92
43153;BME280;28756;49.064;9.290;2023-06-05T13:29:34;98919.41;;;26.18;35.90
43153;BME280;28756;49.064;9.290;2023-06-05T13:31:59;98913.38;;;26.53;36.46